createdAt,value
2016-04-30T00:00:43.225Z,0
2016-04-30T00:01:43.275Z,0
2016-04-30T00:02:43.090Z,0
2016-04-30T00:03:44.998Z,0
2016-04-30T00:04:43.221Z,0
2016-04-30T00:05:42.957Z,0
2016-04-30T00:06:43.226Z,0
2016-04-30T00:07:43.072Z,0
2016-04-30T00:08:43.137Z,0
2016-04-30T00:09:43.218Z,0
2016-04-30T00:10:43.190Z,0
2016-04-30T00:11:43.192Z,0
2016-04-30T00:12:43.195Z,0
2016-04-30T00:13:43.182Z,0
2016-04-30T00:14:43.201Z,0
2016-04-30T00:15:43.031Z,0
2016-04-30T00:16:43.175Z,0
2016-04-30T00:17:43.020Z,0
2016-04-30T00:18:43.211Z,0
2016-04-30T00:19:43.167Z,0
2016-04-30T00:20:43.170Z,0
2016-04-30T00:21:43.188Z,0
2016-04-30T00:22:43.175Z,0
2016-04-30T00:23:43.225Z,0
2016-04-30T00:24:43.164Z,0
2016-04-30T00:25:43.028Z,0
2016-04-30T00:26:43.123Z,0
2016-04-30T00:27:43.126Z,0
2016-04-30T00:28:43.144Z,0
2016-04-30T00:29:42.960Z,0
2016-04-30T00:30:43.008Z,0
2016-04-30T00:31:43.137Z,0
2016-04-30T00:32:43.139Z,0
2016-04-30T00:33:43.361Z,0
2016-04-30T00:34:42.816Z,0
2016-04-30T00:35:43.132Z,0
2016-04-30T00:36:43.260Z,0
2016-04-30T00:37:43.091Z,0
2016-04-30T00:38:43.093Z,0
2016-04-30T00:39:43.079Z,0
2016-04-30T00:40:43.098Z,0
2016-04-30T00:41:42.945Z,0
2016-04-30T00:42:43.088Z,0
2016-04-30T00:43:43.044Z,0
2016-04-30T00:44:42.906Z,0
2016-04-30T00:45:42.940Z,0
2016-04-30T00:46:42.912Z,0
2016-04-30T00:47:42.929Z,0
2016-04-30T00:48:42.948Z,0
2016-04-30T00:49:45.935Z,0
2016-04-30T00:50:43.031Z,0
2016-04-30T00:51:43.034Z,0
2016-04-30T00:52:43.037Z,0
2016-04-30T00:53:43.040Z,0
2016-04-30T00:54:42.886Z,0
2016-04-30T00:55:43.030Z,0
2016-04-30T00:56:43.047Z,0
2016-04-30T00:57:42.878Z,0
2016-04-30T00:58:42.866Z,0
2016-04-30T00:59:43.025Z,0
2016-04-30T01:00:46.011Z,0
2016-04-30T01:01:42.702Z,0
2016-04-30T01:02:42.829Z,0
2016-04-30T01:03:43.286Z,0
2016-04-30T01:04:43.022Z,0
2016-04-30T01:05:42.993Z,0
2016-04-30T01:06:42.810Z,0
2016-04-30T01:07:42.921Z,0
2016-04-30T01:08:42.846Z,0
2016-04-30T01:09:43.004Z,0
2016-04-30T01:10:42.976Z,0
2016-04-30T01:11:42.838Z,0
2016-04-30T01:12:42.966Z,0
2016-04-30T01:13:42.640Z,0
2016-04-30T01:14:42.815Z,0
2016-04-30T01:15:42.959Z,0
2016-04-30T01:16:42.929Z,0
2016-04-30T01:17:42.807Z,0
2016-04-30T01:18:42.967Z,0
2016-04-30T01:19:42.937Z,0
2016-04-30T01:20:42.956Z,0
2016-04-30T01:21:42.756Z,0
2016-04-30T01:22:42.789Z,0
2016-04-30T01:23:42.933Z,0
2016-04-30T01:24:42.764Z,0
2016-04-30T01:25:42.781Z,0
2016-04-30T01:26:42.784Z,0
2016-04-30T01:27:42.756Z,0
2016-04-30T01:28:42.758Z,0
2016-04-30T01:29:42.746Z,0
2016-04-30T01:30:42.873Z,0
2016-04-30T01:31:42.735Z,0
2016-04-30T01:32:42.786Z,0
2016-04-30T01:33:42.741Z,0
2016-04-30T01:34:42.869Z,0
2016-04-30T01:35:42.918Z,0
2016-04-30T01:36:42.718Z,0
2016-04-30T01:37:42.861Z,0
2016-04-30T01:38:42.723Z,0
2016-04-30T01:39:42.741Z,0
2016-04-30T01:40:42.713Z,0
2016-04-30T01:41:42.684Z,0
2016-04-30T01:42:43.171Z,0
2016-04-30T01:43:42.846Z,0
2016-04-30T01:44:42.818Z,0
2016-04-30T01:45:42.836Z,0
2016-04-30T01:46:42.823Z,0
2016-04-30T01:47:42.856Z,0
2016-04-30T01:48:42.656Z,0
2016-04-30T01:49:42.643Z,0
2016-04-30T01:50:42.661Z,0
2016-04-30T01:51:42.665Z,0
2016-04-30T01:52:42.792Z,0
2016-04-30T01:53:42.779Z,0
2016-04-30T01:54:42.656Z,0
2016-04-30T01:55:42.800Z,0
2016-04-30T01:56:42.615Z,0
2016-04-30T01:57:42.789Z,0
2016-04-30T01:58:42.777Z,0
2016-04-30T01:59:42.795Z,0
2016-04-30T02:00:42.783Z,0
2016-04-30T02:01:42.582Z,0
2016-04-30T02:02:42.756Z,0
2016-04-30T02:03:43.150Z,0
2016-04-30T02:04:42.606Z,0
2016-04-30T02:05:42.749Z,0
2016-04-30T02:06:42.721Z,0
2016-04-30T02:07:42.582Z,0
2016-04-30T02:08:42.710Z,0
2016-04-30T02:09:42.713Z,0
2016-04-30T02:10:42.715Z,0
2016-04-30T02:11:42.249Z,0
2016-04-30T02:12:42.721Z,0
2016-04-30T02:13:42.583Z,0
2016-04-30T02:14:42.429Z,0
2016-04-30T02:15:42.540Z,0
2016-04-30T02:16:42.543Z,0
2016-04-30T02:17:42.704Z,0
2016-04-30T02:18:42.768Z,0
2016-04-30T02:19:42.724Z,0
2016-04-30T02:20:42.539Z,0
2016-04-30T02:21:42.995Z,0
2016-04-30T02:22:42.545Z,0
2016-04-30T02:23:45.688Z,0
2016-04-30T02:24:42.534Z,0
2016-04-30T02:25:42.537Z,0
2016-04-30T02:26:42.524Z,0
2016-04-30T02:27:42.652Z,0
2016-04-30T02:28:42.530Z,0
2016-04-30T02:29:42.641Z,0
2016-04-30T02:30:42.614Z,0
2016-04-30T02:31:42.663Z,0
2016-04-30T02:32:42.478Z,0
2016-04-30T02:33:43.183Z,0
2016-04-30T02:34:42.639Z,0
2016-04-30T02:35:42.641Z,0
2016-04-30T02:36:42.597Z,0
2016-04-30T02:37:42.600Z,0
2016-04-30T02:38:42.432Z,0
2016-04-30T02:39:42.605Z,0
2016-04-30T02:40:45.608Z,0
2016-04-30T02:41:42.127Z,0
2016-04-30T02:42:42.598Z,0
2016-04-30T02:43:42.429Z,0
2016-04-30T02:44:42.448Z,0
2016-04-30T02:45:42.591Z,0
2016-04-30T02:46:42.421Z,0
2016-04-30T02:47:42.409Z,0
2016-04-30T02:48:42.426Z,0
2016-04-30T02:49:42.462Z,0
2016-04-30T02:50:42.401Z,0
2016-04-30T02:51:42.420Z,0
2016-04-30T02:52:42.531Z,0
2016-04-30T02:53:42.534Z,0
2016-04-30T02:54:42.395Z,0
2016-04-30T02:55:42.852Z,0
2016-04-30T02:56:42.371Z,0
2016-04-30T02:57:42.061Z,0
2016-04-30T02:58:42.532Z,0
2016-04-30T02:59:42.331Z,0
2016-04-30T03:00:42.349Z,0
2016-04-30T03:01:42.477Z,0
2016-04-30T03:02:42.464Z,0
2016-04-30T03:03:42.467Z,0
2016-04-30T03:04:43.673Z,0
2016-04-30T03:05:42.457Z,0
2016-04-30T03:06:42.444Z,0
2016-04-30T03:07:42.306Z,0
2016-04-30T03:08:42.434Z,0
2016-04-30T03:09:42.468Z,0
2016-04-30T03:10:42.439Z,0
2016-04-30T03:11:42.457Z,0
2016-04-30T03:12:42.148Z,0
2016-04-30T03:13:42.432Z,0
2016-04-30T03:14:42.293Z,0
2016-04-30T03:15:42.266Z,0
2016-04-30T03:16:42.409Z,0
2016-04-30T03:17:42.427Z,0
2016-04-30T03:18:42.085Z,0
2016-04-30T03:19:42.792Z,0
2016-04-30T03:20:42.419Z,0
2016-04-30T03:21:42.250Z,0
2016-04-30T03:22:42.409Z,0
2016-04-30T03:23:42.381Z,0
2016-04-30T03:24:42.367Z,0
2016-04-30T03:25:42.371Z,0
2016-04-30T03:26:42.217Z,0
2016-04-30T03:27:42.063Z,0
2016-04-30T03:28:42.347Z,0
2016-04-30T03:29:42.209Z,0
2016-04-30T03:30:41.884Z,0
2016-04-30T03:31:42.199Z,0
2016-04-30T03:32:42.391Z,0
2016-04-30T03:33:42.384Z,0
2016-04-30T03:34:43.206Z,0
2016-04-30T03:35:42.371Z,0
2016-04-30T03:36:42.427Z,0
2016-04-30T03:37:42.451Z,0
2016-04-30T03:38:42.284Z,0
2016-04-30T03:39:42.462Z,0
2016-04-30T03:40:42.343Z,0
2016-04-30T03:41:42.677Z,0
2016-04-30T03:42:42.687Z,0
2016-04-30T03:43:42.666Z,0
2016-04-30T03:44:42.659Z,0
2016-04-30T03:45:42.685Z,0
2016-04-30T03:46:42.648Z,0
2016-04-30T03:47:42.356Z,0
2016-04-30T03:48:42.361Z,0
2016-04-30T03:49:42.680Z,0
2016-04-30T03:50:42.669Z,0
2016-04-30T03:51:42.831Z,0
2016-04-30T03:52:42.648Z,0
2016-04-30T03:53:42.651Z,0
2016-04-30T03:54:42.639Z,0
2016-04-30T03:55:42.627Z,0
2016-04-30T03:56:42.364Z,0
2016-04-30T03:57:42.461Z,0
2016-04-30T03:58:42.621Z,0
2016-04-30T03:59:42.482Z,5
2016-04-30T04:00:42.627Z,5
2016-04-30T04:01:42.614Z,5
2016-04-30T04:02:42.461Z,5
2016-04-30T04:03:42.589Z,5
2016-04-30T04:04:43.091Z,5
2016-04-30T04:05:42.281Z,5
2016-04-30T04:06:42.424Z,5
2016-04-30T04:07:42.598Z,5
2016-04-30T04:08:42.571Z,10
2016-04-30T04:09:42.433Z,10
2016-04-30T04:10:42.404Z,10
2016-04-30T04:11:42.407Z,10
2016-04-30T04:12:42.393Z,10
2016-04-30T04:13:42.553Z,10
2016-04-30T04:14:42.368Z,15
2016-04-30T04:15:42.371Z,15
2016-04-30T04:16:42.373Z,15
2016-04-30T04:17:42.532Z,15
2016-04-30T04:18:42.831Z,15
2016-04-30T04:19:42.522Z,15
2016-04-30T04:20:42.509Z,20
2016-04-30T04:21:42.497Z,20
2016-04-30T04:22:42.358Z,20
2016-04-30T04:23:42.361Z,20
2016-04-30T04:24:42.363Z,25
2016-04-30T04:25:42.507Z,25
2016-04-30T04:26:42.494Z,25
2016-04-30T04:27:42.309Z,25
2016-04-30T04:28:42.453Z,30
2016-04-30T04:29:42.486Z,30
2016-04-30T04:30:42.489Z,30
2016-04-30T04:31:42.444Z,35
2016-04-30T04:32:42.463Z,35
2016-04-30T04:33:42.309Z,35
2016-04-30T04:34:42.282Z,40
2016-04-30T04:35:42.096Z,45
2016-04-30T04:36:42.255Z,45
2016-04-30T04:37:42.446Z,50
2016-04-30T04:38:42.432Z,50
2016-04-30T04:39:42.623Z,55
2016-04-30T04:40:45.126Z,55
2016-04-30T04:41:42.393Z,60
2016-04-30T04:42:42.240Z,60
2016-04-30T04:43:42.227Z,60
2016-04-30T04:44:42.229Z,65
2016-04-30T04:45:42.373Z,70
2016-04-30T04:46:42.407Z,80
2016-04-30T04:47:42.379Z,85
2016-04-30T04:48:42.194Z,95
2016-04-30T04:49:42.978Z,105
2016-04-30T04:50:42.042Z,105
2016-04-30T04:51:42.358Z,105
2016-04-30T04:52:42.360Z,105
2016-04-30T04:53:42.364Z,100
2016-04-30T04:54:42.350Z,110
2016-04-30T04:55:42.197Z,105
2016-04-30T04:56:42.340Z,105
2016-04-30T04:57:42.343Z,110
2016-04-30T04:58:42.330Z,105
2016-04-30T04:59:42.333Z,105
2016-04-30T05:00:42.336Z,105
2016-04-30T05:01:42.150Z,105
2016-04-30T05:02:42.310Z,105
2016-04-30T05:03:42.187Z,105
2016-04-30T05:04:42.362Z,100
2016-04-30T05:05:42.021Z,100
2016-04-30T05:06:42.289Z,105
2016-04-30T05:07:42.151Z,105
2016-04-30T05:08:42.154Z,110
2016-04-30T05:09:42.156Z,110
2016-04-30T05:10:42.143Z,110
2016-04-30T05:11:42.287Z,125
2016-04-30T05:12:42.305Z,125
2016-04-30T05:13:42.276Z,125
2016-04-30T05:14:42.264Z,115
2016-04-30T05:15:42.142Z,115
2016-04-30T05:16:42.097Z,110
2016-04-30T05:17:42.240Z,110
2016-04-30T05:18:42.837Z,115
2016-04-30T05:19:43.590Z,130
2016-04-30T05:20:42.248Z,150
2016-04-30T05:21:42.251Z,165
2016-04-30T05:22:42.238Z,180
2016-04-30T05:23:42.256Z,185
2016-04-30T05:24:42.259Z,175
2016-04-30T05:25:42.075Z,170
2016-04-30T05:26:42.249Z,175
2016-04-30T05:27:42.267Z,175
2016-04-30T05:28:42.255Z,150
2016-04-30T05:29:41.788Z,140
2016-04-30T05:30:42.228Z,135
2016-04-30T05:31:42.060Z,135
2016-04-30T05:32:42.202Z,140
2016-04-30T05:33:42.236Z,140
2016-04-30T05:34:45.068Z,150
2016-04-30T05:35:42.226Z,145
2016-04-30T05:36:42.058Z,150
2016-04-30T05:37:42.232Z,155
2016-04-30T05:38:42.204Z,155
2016-04-30T05:39:42.049Z,155
2016-04-30T05:40:42.052Z,150
2016-04-30T05:41:42.211Z,150
2016-04-30T05:42:42.214Z,140
2016-04-30T05:43:42.232Z,135
2016-04-30T05:44:42.048Z,135
2016-04-30T05:45:42.066Z,145
2016-04-30T05:46:41.896Z,145
2016-04-30T05:47:42.056Z,145
2016-04-30T05:48:42.293Z,150
2016-04-30T05:49:41.983Z,165
2016-04-30T05:50:41.876Z,180
2016-04-30T05:51:42.191Z,190
2016-04-30T05:52:41.912Z,205
2016-04-30T05:53:41.869Z,210
2016-04-30T05:54:42.214Z,210
2016-04-30T05:55:42.061Z,205
2016-04-30T05:56:41.861Z,195
2016-04-30T05:57:42.145Z,165
2016-04-30T05:58:42.164Z,155
2016-04-30T05:59:42.011Z,145
2016-04-30T06:00:42.168Z,150
2016-04-30T06:01:42.015Z,140
2016-04-30T06:02:41.847Z,145
2016-04-30T06:03:42.146Z,130
2016-04-30T06:04:42.617Z,130
2016-04-30T06:05:42.166Z,130
2016-04-30T06:06:42.169Z,135
2016-04-30T06:07:42.188Z,135
2016-04-30T06:08:42.143Z,140
2016-04-30T06:09:42.146Z,145
2016-04-30T06:10:41.993Z,150
2016-04-30T06:11:42.152Z,165
2016-04-30T06:12:42.154Z,160
2016-04-30T06:13:42.016Z,160
2016-04-30T06:14:41.971Z,160
2016-04-30T06:15:42.146Z,165
2016-04-30T06:16:42.149Z,170
2016-04-30T06:17:42.151Z,165
2016-04-30T06:18:42.170Z,165
2016-04-30T06:19:42.001Z,160
2016-04-30T06:20:41.817Z,160
2016-04-30T06:21:41.819Z,160
2016-04-30T06:22:42.456Z,160
2016-04-30T06:23:42.116Z,165
2016-04-30T06:24:42.118Z,160
2016-04-30T06:25:41.964Z,165
2016-04-30T06:26:41.983Z,175
2016-04-30T06:27:42.127Z,180
2016-04-30T06:28:42.113Z,170
2016-04-30T06:29:42.116Z,170
2016-04-30T06:30:41.838Z,175
2016-04-30T06:31:42.106Z,175
2016-04-30T06:32:42.171Z,180
2016-04-30T06:33:41.955Z,185
2016-04-30T06:34:43.316Z,195
2016-04-30T06:35:42.148Z,205
2016-04-30T06:36:41.963Z,210
2016-04-30T06:37:42.137Z,220
2016-04-30T06:38:42.109Z,225
2016-04-30T06:39:41.955Z,210
2016-04-30T06:40:42.052Z,225
2016-04-30T06:41:42.101Z,210
2016-04-30T06:42:41.948Z,215
2016-04-30T06:43:42.106Z,215
2016-04-30T06:44:41.953Z,220
2016-04-30T06:45:41.940Z,220
2016-04-30T06:46:42.114Z,190
2016-04-30T06:47:42.117Z,190
2016-04-30T06:48:42.089Z,195
2016-04-30T06:49:42.154Z,250
2016-04-30T06:50:42.142Z,230
2016-04-30T06:51:42.128Z,200
2016-04-30T06:52:41.943Z,220
2016-04-30T06:53:42.087Z,240
2016-04-30T06:54:42.106Z,280
2016-04-30T06:55:42.123Z,265
2016-04-30T06:56:42.094Z,255
2016-04-30T06:57:42.144Z,255
2016-04-30T06:58:41.960Z,270
2016-04-30T06:59:42.119Z,285
2016-04-30T07:00:42.137Z,295
2016-04-30T07:01:42.093Z,325
2016-04-30T07:02:42.096Z,330
2016-04-30T07:03:41.942Z,325
2016-04-30T07:04:42.101Z,315
2016-04-30T07:05:41.790Z,295
2016-04-30T07:06:42.122Z,270
2016-04-30T07:07:42.093Z,295
2016-04-30T07:08:42.127Z,295
2016-04-30T07:09:41.990Z,285
2016-04-30T07:10:42.132Z,280
2016-04-30T07:11:42.120Z,275
2016-04-30T07:12:42.107Z,275
2016-04-30T07:13:41.984Z,275
2016-04-30T07:14:41.971Z,265
2016-04-30T07:15:41.849Z,265
2016-04-30T07:16:42.118Z,275
2016-04-30T07:17:42.167Z,310
2016-04-30T07:18:42.029Z,270
2016-04-30T07:19:41.844Z,270
2016-04-30T07:20:42.128Z,290
2016-04-30T07:21:41.990Z,290
2016-04-30T07:22:42.150Z,315
2016-04-30T07:23:41.964Z,295
2016-04-30T07:24:42.155Z,295
2016-04-30T07:25:42.001Z,295
2016-04-30T07:26:42.113Z,270
2016-04-30T07:27:41.991Z,310
2016-04-30T07:28:41.994Z,280
2016-04-30T07:29:41.981Z,270
2016-04-30T07:30:42.155Z,290
2016-04-30T07:31:42.158Z,275
2016-04-30T07:32:42.144Z,270
2016-04-30T07:33:41.975Z,295
2016-04-30T07:34:42.635Z,300
2016-04-30T07:35:41.997Z,310
2016-04-30T07:36:42.015Z,335
2016-04-30T07:37:42.158Z,305
2016-04-30T07:38:42.146Z,315
2016-04-30T07:39:42.148Z,320
2016-04-30T07:40:42.151Z,310
2016-04-30T07:41:41.997Z,315
2016-04-30T07:42:42.156Z,310
2016-04-30T07:43:42.034Z,320
2016-04-30T07:44:42.021Z,310
2016-04-30T07:45:42.164Z,320
2016-04-30T07:46:42.026Z,295
2016-04-30T07:47:41.873Z,315
2016-04-30T07:48:42.032Z,290
2016-04-30T07:49:42.815Z,290
2016-04-30T07:50:42.193Z,320
2016-04-30T07:51:42.180Z,325
2016-04-30T07:52:42.042Z,345
2016-04-30T07:53:42.029Z,340
2016-04-30T07:54:41.892Z,340
2016-04-30T07:55:42.191Z,310
2016-04-30T07:56:42.225Z,335
2016-04-30T07:57:42.056Z,315
2016-04-30T07:58:42.214Z,285
2016-04-30T07:59:42.217Z,285
2016-04-30T08:00:41.923Z,290
2016-04-30T08:01:42.207Z,300
2016-04-30T08:02:42.272Z,300
2016-04-30T08:03:42.260Z,320
2016-04-30T08:04:42.137Z,305
2016-04-30T08:05:42.233Z,300
2016-04-30T08:06:42.095Z,310
2016-04-30T08:07:42.255Z,325
2016-04-30T08:08:42.117Z,315
2016-04-30T08:09:42.244Z,325
2016-04-30T08:10:42.262Z,330
2016-04-30T08:11:42.077Z,325
2016-04-30T08:12:42.237Z,335
2016-04-30T08:13:42.254Z,330
2016-04-30T08:14:42.257Z,335
2016-04-30T08:15:42.120Z,335
2016-04-30T08:16:42.295Z,325
2016-04-30T08:17:41.968Z,330
2016-04-30T08:18:42.143Z,335
2016-04-30T08:19:42.006Z,330
2016-04-30T08:20:42.305Z,330
2016-04-30T08:21:42.292Z,320
2016-04-30T08:22:42.311Z,320
2016-04-30T08:23:42.142Z,320
2016-04-30T08:24:42.145Z,335
2016-04-30T08:25:42.303Z,335
2016-04-30T08:26:42.446Z,345
2016-04-30T08:27:42.325Z,335
2016-04-30T08:28:42.358Z,335
2016-04-30T08:29:42.329Z,345
2016-04-30T08:30:42.192Z,350
2016-04-30T08:31:42.335Z,360
2016-04-30T08:32:42.338Z,355
2016-04-30T08:33:42.386Z,355
2016-04-30T08:34:44.343Z,340
2016-04-30T08:35:42.345Z,340
2016-04-30T08:36:42.364Z,330
2016-04-30T08:37:42.194Z,330
2016-04-30T08:38:42.399Z,330
2016-04-30T08:39:42.356Z,330
2016-04-30T08:40:42.405Z,330
2016-04-30T08:41:42.221Z,325
2016-04-30T08:42:42.473Z,325
2016-04-30T08:43:42.382Z,320
2016-04-30T08:44:42.416Z,320
2016-04-30T08:45:42.404Z,325
2016-04-30T08:46:42.437Z,330
2016-04-30T08:47:42.409Z,330
2016-04-30T08:48:42.443Z,330
2016-04-30T08:49:42.634Z,335
2016-04-30T08:50:42.464Z,330
2016-04-30T08:51:42.467Z,335
2016-04-30T08:52:42.438Z,330
2016-04-30T08:53:42.456Z,340
2016-04-30T08:54:42.474Z,325
2016-04-30T08:55:42.117Z,325
2016-04-30T08:56:42.292Z,320
2016-04-30T08:57:42.436Z,310
2016-04-30T08:58:42.360Z,325
2016-04-30T08:59:42.472Z,325
2016-04-30T09:00:42.178Z,325
2016-04-30T09:01:42.478Z,330
2016-04-30T09:02:42.480Z,340
2016-04-30T09:03:42.342Z,335
2016-04-30T09:04:42.345Z,340
2016-04-30T09:05:42.520Z,335
2016-04-30T09:06:42.491Z,335
2016-04-30T09:07:42.353Z,335
2016-04-30T09:08:42.528Z,345
2016-04-30T09:09:42.515Z,345
2016-04-30T09:10:42.517Z,345
2016-04-30T09:11:42.520Z,350
2016-04-30T09:12:42.382Z,350
2016-04-30T09:13:42.369Z,350
2016-04-30T09:14:42.528Z,345
2016-04-30T09:15:42.546Z,345
2016-04-30T09:16:42.549Z,345
2016-04-30T09:17:42.568Z,345
2016-04-30T09:18:42.539Z,340
2016-04-30T09:19:44.432Z,330
2016-04-30T09:20:42.560Z,320
2016-04-30T09:21:42.407Z,320
2016-04-30T09:22:42.581Z,320
2016-04-30T09:23:42.568Z,320
2016-04-30T09:24:42.571Z,320
2016-04-30T09:25:42.590Z,320
2016-04-30T09:26:42.122Z,310
2016-04-30T09:27:42.594Z,310
2016-04-30T09:28:42.581Z,310
2016-04-30T09:29:42.303Z,315
2016-04-30T09:30:42.586Z,315
2016-04-30T09:31:42.589Z,315
2016-04-30T09:32:42.592Z,315
2016-04-30T09:33:42.595Z,315
2016-04-30T09:34:44.222Z,315
2016-04-30T09:35:42.633Z,315
2016-04-30T09:36:42.447Z,315
2016-04-30T09:37:42.465Z,315
2016-04-30T09:38:42.483Z,315
2016-04-30T09:39:42.643Z,315
2016-04-30T09:40:42.489Z,315
2016-04-30T09:41:42.491Z,305
2016-04-30T09:42:42.651Z,300
2016-04-30T09:43:42.653Z,295
2016-04-30T09:44:42.657Z,300
2016-04-30T09:45:42.940Z,305
2016-04-30T09:46:42.645Z,300
2016-04-30T09:47:42.649Z,305
2016-04-30T09:48:42.760Z,320
2016-04-30T09:49:42.856Z,305
2016-04-30T09:50:42.673Z,310
2016-04-30T09:51:42.675Z,320
2016-04-30T09:52:42.693Z,320
2016-04-30T09:53:42.696Z,315
2016-04-30T09:54:42.667Z,320
2016-04-30T09:55:42.686Z,315
2016-04-30T09:56:42.703Z,310
2016-04-30T09:57:42.394Z,310
2016-04-30T09:58:42.709Z,305
2016-04-30T09:59:42.431Z,300
2016-04-30T10:00:42.574Z,300
2016-04-30T10:01:42.577Z,295
2016-04-30T10:02:42.736Z,300
2016-04-30T10:03:42.754Z,295
2016-04-30T10:04:43.991Z,295
2016-04-30T10:05:42.744Z,295
2016-04-30T10:06:42.558Z,300
2016-04-30T10:07:42.764Z,305
2016-04-30T10:08:42.752Z,300
2016-04-30T10:09:42.754Z,305
2016-04-30T10:10:42.741Z,310
2016-04-30T10:11:42.760Z,310
2016-04-30T10:12:42.621Z,295
2016-04-30T10:13:42.750Z,295
2016-04-30T10:14:42.768Z,315
2016-04-30T10:15:42.615Z,305
2016-04-30T10:16:42.458Z,325
2016-04-30T10:17:43.073Z,295
2016-04-30T10:18:42.904Z,295
2016-04-30T10:19:42.810Z,300
2016-04-30T10:20:42.453Z,305
2016-04-30T10:21:42.785Z,300
2016-04-30T10:22:42.787Z,300
2016-04-30T10:23:42.790Z,315
2016-04-30T10:24:42.637Z,330
2016-04-30T10:25:42.685Z,335
2016-04-30T10:26:42.656Z,325
2016-04-30T10:27:42.613Z,320
2016-04-30T10:28:42.647Z,310
2016-04-30T10:29:42.821Z,315
2016-04-30T10:30:42.840Z,315
2016-04-30T10:31:42.826Z,315
2016-04-30T10:32:42.658Z,315
2016-04-30T10:33:42.676Z,310
2016-04-30T10:34:43.459Z,310
2016-04-30T10:35:42.853Z,310
2016-04-30T10:36:42.855Z,310
2016-04-30T10:37:42.859Z,305
2016-04-30T10:38:42.689Z,305
2016-04-30T10:39:42.848Z,305
2016-04-30T10:40:42.711Z,310
2016-04-30T10:41:42.853Z,310
2016-04-30T10:42:42.856Z,305
2016-04-30T10:43:42.719Z,300
2016-04-30T10:44:42.611Z,305
2016-04-30T10:45:42.864Z,305
2016-04-30T10:46:42.696Z,305
2016-04-30T10:47:42.885Z,305
2016-04-30T10:48:42.747Z,300
2016-04-30T10:49:43.110Z,290
2016-04-30T10:50:42.737Z,285
2016-04-30T10:51:42.896Z,285
2016-04-30T10:52:42.882Z,280
2016-04-30T10:53:42.746Z,280
2016-04-30T10:54:42.905Z,280
2016-04-30T10:55:42.970Z,275
2016-04-30T10:56:42.769Z,275
2016-04-30T10:57:42.928Z,275
2016-04-30T10:58:43.087Z,275
2016-04-30T10:59:42.777Z,275
2016-04-30T11:00:42.951Z,275
2016-04-30T11:01:42.923Z,280
2016-04-30T11:02:42.925Z,280
2016-04-30T11:03:42.913Z,280
2016-04-30T11:04:44.228Z,280
2016-04-30T11:05:42.605Z,280
2016-04-30T11:06:42.796Z,285
2016-04-30T11:07:43.017Z,285
2016-04-30T11:08:42.847Z,290
2016-04-30T11:09:42.945Z,290
2016-04-30T11:10:42.979Z,295
2016-04-30T11:11:42.997Z,310
2016-04-30T11:12:42.999Z,310
2016-04-30T11:13:42.830Z,315
2016-04-30T11:14:42.839Z,320
2016-04-30T11:15:42.994Z,325
2016-04-30T11:16:43.027Z,325
2016-04-30T11:17:42.827Z,330
2016-04-30T11:18:42.987Z,340
2016-04-30T11:19:43.068Z,345
2016-04-30T11:20:42.993Z,350
2016-04-30T11:21:42.870Z,355
2016-04-30T11:22:42.998Z,355
2016-04-30T11:23:42.687Z,360
2016-04-30T11:24:43.003Z,365
2016-04-30T11:25:42.849Z,365
2016-04-30T11:26:42.867Z,365
2016-04-30T11:27:42.917Z,365
2016-04-30T11:28:43.029Z,370
2016-04-30T11:29:43.031Z,375
2016-04-30T11:30:42.878Z,375
2016-04-30T11:31:43.084Z,375
2016-04-30T11:32:43.195Z,375
2016-04-30T11:33:42.745Z,380
2016-04-30T11:34:44.483Z,380
2016-04-30T11:35:43.048Z,380
2016-04-30T11:36:42.957Z,380
2016-04-30T11:37:42.897Z,380
2016-04-30T11:38:43.071Z,385
2016-04-30T11:39:46.058Z,390
2016-04-30T11:40:42.952Z,390
2016-04-30T11:41:43.110Z,390
2016-04-30T11:42:43.098Z,395
2016-04-30T11:43:42.975Z,390
2016-04-30T11:44:43.103Z,390
2016-04-30T11:45:43.122Z,390
2016-04-30T11:46:43.422Z,390
2016-04-30T11:47:43.111Z,395
2016-04-30T11:48:43.129Z,390
2016-04-30T11:49:42.991Z,390
2016-04-30T11:50:43.135Z,390
2016-04-30T11:51:42.997Z,390
2016-04-30T11:52:42.984Z,390
2016-04-30T11:53:43.159Z,390
2016-04-30T11:54:43.348Z,385
2016-04-30T11:55:43.179Z,380
2016-04-30T11:56:43.167Z,375
2016-04-30T11:57:43.013Z,375
2016-04-30T11:58:43.203Z,370
2016-04-30T11:59:43.206Z,370
2016-04-30T12:00:42.865Z,365
2016-04-30T12:01:43.040Z,365
2016-04-30T12:02:43.231Z,360
2016-04-30T12:03:43.200Z,365
2016-04-30T12:04:43.547Z,355
2016-04-30T12:05:42.926Z,355
2016-04-30T12:06:43.131Z,355
2016-04-30T12:07:43.244Z,350
2016-04-30T12:08:43.262Z,355
2016-04-30T12:09:43.233Z,345
2016-04-30T12:10:43.282Z,340
2016-04-30T12:11:43.254Z,345
2016-04-30T12:12:43.303Z,335
2016-04-30T12:13:43.322Z,330
2016-04-30T12:14:43.308Z,330
2016-04-30T12:15:43.436Z,330
2016-04-30T12:16:43.127Z,335
2016-04-30T12:17:43.270Z,325
2016-04-30T12:18:43.148Z,320
2016-04-30T12:19:45.963Z,320
2016-04-30T12:20:43.325Z,325
2016-04-30T12:21:43.124Z,325
2016-04-30T12:22:43.330Z,325
2016-04-30T12:23:42.973Z,320
2016-04-30T12:24:43.023Z,325
2016-04-30T12:25:43.167Z,325
2016-04-30T12:26:43.373Z,320
2016-04-30T12:27:43.344Z,310
2016-04-30T12:28:43.003Z,310
2016-04-30T12:29:43.318Z,300
2016-04-30T12:30:43.399Z,300
2016-04-30T12:31:43.354Z,295
2016-04-30T12:32:43.356Z,295
2016-04-30T12:33:43.344Z,295
2016-04-30T12:34:44.034Z,295
2016-04-30T12:35:43.225Z,295
2016-04-30T12:36:43.367Z,305
2016-04-30T12:37:43.230Z,305
2016-04-30T12:38:43.400Z,310
2016-04-30T12:39:43.271Z,320
2016-04-30T12:40:43.346Z,320
2016-04-30T12:41:43.530Z,325
2016-04-30T12:42:43.557Z,330
2016-04-30T12:43:43.609Z,330
2016-04-30T12:44:43.471Z,335
2016-04-30T12:45:43.317Z,345
2016-04-30T12:46:43.662Z,355
2016-04-30T12:47:43.352Z,355
2016-04-30T12:48:43.538Z,355
2016-04-30T12:49:43.952Z,365
2016-04-30T12:50:43.726Z,355
2016-04-30T12:51:43.609Z,355
2016-04-30T12:52:43.742Z,355
2016-04-30T12:53:43.733Z,360
2016-04-30T12:54:43.785Z,365
2016-04-30T12:55:43.758Z,365
2016-04-30T12:56:43.778Z,370
2016-04-30T12:57:43.643Z,375
2016-04-30T12:58:43.475Z,375
2016-04-30T12:59:43.322Z,375
2016-04-30T13:00:43.481Z,380
2016-04-30T13:01:43.797Z,380
2016-04-30T13:02:43.471Z,380
2016-04-30T13:03:43.710Z,385
2016-04-30T13:04:43.697Z,385
2016-04-30T13:05:43.684Z,390
2016-04-30T13:06:43.828Z,385
2016-04-30T13:07:43.814Z,380
2016-04-30T13:08:43.677Z,380
2016-04-30T13:09:43.852Z,380
2016-04-30T13:10:43.730Z,375
2016-04-30T13:11:43.858Z,375
2016-04-30T13:12:43.720Z,370
2016-04-30T13:13:43.847Z,370
2016-04-30T13:14:43.708Z,370
2016-04-30T13:15:43.883Z,365
2016-04-30T13:16:43.589Z,365
2016-04-30T13:17:43.874Z,370
2016-04-30T13:18:44.002Z,370
2016-04-30T13:19:43.817Z,375
2016-04-30T13:20:43.943Z,380
2016-04-30T13:21:43.743Z,385
2016-04-30T13:22:43.933Z,385
2016-04-30T13:23:43.921Z,385
2016-04-30T13:24:43.955Z,385
2016-04-30T13:25:43.941Z,390
2016-04-30T13:26:43.929Z,385
2016-04-30T13:27:43.963Z,390
2016-04-30T13:28:43.965Z,385
2016-04-30T13:29:43.859Z,385
2016-04-30T13:30:43.783Z,380
2016-04-30T13:31:44.020Z,380
2016-04-30T13:32:43.960Z,370
2016-04-30T13:33:43.807Z,365
2016-04-30T13:34:44.029Z,360
2016-04-30T13:35:43.672Z,355
2016-04-30T13:36:43.861Z,355
2016-04-30T13:37:44.006Z,365
2016-04-30T13:38:43.976Z,360
2016-04-30T13:39:43.995Z,360
2016-04-30T13:40:44.028Z,360
2016-04-30T13:41:43.673Z,360
2016-04-30T13:42:44.034Z,360
2016-04-30T13:43:44.022Z,360
2016-04-30T13:44:44.040Z,365
2016-04-30T13:45:44.058Z,365
2016-04-30T13:46:43.748Z,360
2016-04-30T13:47:44.063Z,360
2016-04-30T13:48:43.894Z,360
2016-04-30T13:49:43.944Z,365
2016-04-30T13:50:44.040Z,355
2016-04-30T13:51:44.058Z,355
2016-04-30T13:52:44.061Z,350
2016-04-30T13:53:44.080Z,340
2016-04-30T13:54:44.113Z,335
2016-04-30T13:55:44.116Z,330
2016-04-30T13:56:43.932Z,325
2016-04-30T13:57:44.122Z,325
2016-04-30T13:58:44.124Z,320
2016-04-30T13:59:44.096Z,320
2016-04-30T14:00:44.115Z,320
2016-04-30T14:01:44.117Z,320
2016-04-30T14:02:44.245Z,320
2016-04-30T14:03:43.982Z,320
2016-04-30T14:04:44.125Z,325